sensor_id;sensor_type;location;lat;lon;timestamp;P1;durP1;ratioP1;P2;durP2;ratioP2
17858;SDS011;35426;30.698;104.050;2023-12-29T00:01:29;433.33;;;162.67;;
17858;SDS011;35426;30.698;104.050;2023-12-29T00:04:04;423.77;;;157.37;;
17858;SDS011;35426;30.698;104.050;2023-12-29T00:06:38;429.60;;;158.63;;
17858;SDS011;35426;30.698;104.050;2023-12-29T00:09:26;430.20;;;161.87;;
17858;SDS011;35426;30.698;104.050;2023-12-29T00:12:07;420.60;;;155.67;;
17858;SDS011;35426;30.698;104.050;2023-12-29T00:14:44;413.60;;;154.27;;
17858;SDS011;35426;30.698;104.050;2023-12-29T00:17:18;433.53;;;160.77;;
17858;SDS011;35426;30.698;104.050;2023-12-29T00:19:53;416.93;;;157.90;;
17858;SDS011;35426;30.698;104.050;2023-12-29T00:22:27;413.40;;;159.30;;
17858;SDS011;35426;30.698;104.050;2023-12-29T00:25:02;414.10;;;156.13;;
17858;SDS011;35426;30.698;104.050;2023-12-29T00:27:38;428.37;;;158.33;;
17858;SDS011;35426;30.698;104.050;2023-12-29T00:30:14;430.30;;;159.70;;
17858;SDS011;35426;30.698;104.050;2023-12-29T00:32:49;411.03;;;159.77;;
17858;SDS011;35426;30.698;104.050;2023-12-29T00:35:23;453.97;;;161.33;;
17858;SDS011;35426;30.698;104.050;2023-12-29T00:37:57;431.63;;;159.33;;
17858;SDS011;35426;30.698;104.050;2023-12-29T00:40:31;425.50;;;156.47;;
17858;SDS011;35426;30.698;104.050;2023-12-29T00:43:05;425.97;;;157.03;;
17858;SDS011;35426;30.698;104.050;2023-12-29T00:45:42;417.83;;;157.13;;
17858;SDS011;35426;30.698;104.050;2023-12-29T00:48:16;413.77;;;156.90;;
17858;SDS011;35426;30.698;104.050;2023-12-29T00:50:51;419.67;;;156.37;;
17858;SDS011;35426;30.698;104.050;2023-12-29T00:53:26;410.77;;;153.43;;
17858;SDS011;35426;30.698;104.050;2023-12-29T00:56:01;412.23;;;152.87;;
17858;SDS011;35426;30.698;104.050;2023-12-29T00:58:34;417.70;;;154.60;;
17858;SDS011;35426;30.698;104.050;2023-12-29T01:01:12;409.20;;;154.90;;
17858;SDS011;35426;30.698;104.050;2023-12-29T01:03:46;404.13;;;152.57;;
17858;SDS011;35426;30.698;104.050;2023-12-29T01:06:24;397.70;;;152.00;;
17858;SDS011;35426;30.698;104.050;2023-12-29T01:08:59;414.73;;;154.83;;
17858;SDS011;35426;30.698;104.050;2023-12-29T01:11:32;392.73;;;149.00;;
17858;SDS011;35426;30.698;104.050;2023-12-29T01:14:11;381.53;;;144.63;;
17858;SDS011;35426;30.698;104.050;2023-12-29T01:16:47;385.93;;;145.07;;
17858;SDS011;35426;30.698;104.050;2023-12-29T01:19:24;380.73;;;143.60;;
17858;SDS011;35426;30.698;104.050;2023-12-29T01:21:58;372.80;;;140.97;;
17858;SDS011;35426;30.698;104.050;2023-12-29T01:24:34;369.50;;;138.87;;
17858;SDS011;35426;30.698;104.050;2023-12-29T01:27:13;357.60;;;140.07;;
17858;SDS011;35426;30.698;104.050;2023-12-29T01:29:48;385.43;;;146.33;;
17858;SDS011;35426;30.698;104.050;2023-12-29T01:32:26;370.57;;;143.30;;
17858;SDS011;35426;30.698;104.050;2023-12-29T01:35:01;358.20;;;134.90;;
17858;SDS011;35426;30.698;104.050;2023-12-29T01:37:35;351.83;;;134.27;;
17858;SDS011;35426;30.698;104.050;2023-12-29T01:40:10;362.73;;;136.70;;
17858;SDS011;35426;30.698;104.050;2023-12-29T01:42:45;357.70;;;138.87;;
17858;SDS011;35426;30.698;104.050;2023-12-29T01:45:24;362.53;;;145.93;;
17858;SDS011;35426;30.698;104.050;2023-12-29T01:48:03;379.03;;;149.20;;
17858;SDS011;35426;30.698;104.050;2023-12-29T01:50:37;399.10;;;151.63;;
17858;SDS011;35426;30.698;104.050;2023-12-29T01:53:14;401.83;;;155.20;;
17858;SDS011;35426;30.698;104.050;2023-12-29T01:56:01;428.00;;;159.63;;
17858;SDS011;35426;30.698;104.050;2023-12-29T01:58:36;415.03;;;158.70;;
17858;SDS011;35426;30.698;104.050;2023-12-29T02:01:10;417.67;;;156.03;;
17858;SDS011;35426;30.698;104.050;2023-12-29T02:03:49;411.17;;;162.27;;
17858;SDS011;35426;30.698;104.050;2023-12-29T02:06:23;415.57;;;155.57;;
17858;SDS011;35426;30.698;104.050;2023-12-29T02:08:58;404.37;;;158.13;;
17858;SDS011;35426;30.698;104.050;2023-12-29T02:11:33;400.57;;;161.93;;
17858;SDS011;35426;30.698;104.050;2023-12-29T02:14:07;394.27;;;159.17;;
17858;SDS011;35426;30.698;104.050;2023-12-29T02:16:46;352.00;;;141.23;;
17858;SDS011;35426;30.698;104.050;2023-12-29T02:19:39;394.70;;;151.83;;
17858;SDS011;35426;30.698;104.050;2023-12-29T02:22:14;359.30;;;145.90;;
17858;SDS011;35426;30.698;104.050;2023-12-29T02:24:51;369.10;;;145.27;;
17858;SDS011;35426;30.698;104.050;2023-12-29T02:27:29;370.90;;;148.30;;
17858;SDS011;35426;30.698;104.050;2023-12-29T02:30:15;350.13;;;148.47;;
17858;SDS011;35426;30.698;104.050;2023-12-29T02:32:54;361.83;;;147.27;;
17858;SDS011;35426;30.698;104.050;2023-12-29T02:35:32;350.97;;;145.23;;
17858;SDS011;35426;30.698;104.050;2023-12-29T02:38:10;372.10;;;153.80;;
17858;SDS011;35426;30.698;104.050;2023-12-29T02:40:48;374.90;;;156.23;;
17858;SDS011;35426;30.698;104.050;2023-12-29T02:43:22;378.80;;;153.43;;
17858;SDS011;35426;30.698;104.050;2023-12-29T02:45:58;378.27;;;156.80;;
17858;SDS011;35426;30.698;104.050;2023-12-29T02:48:33;398.57;;;163.33;;
17858;SDS011;35426;30.698;104.050;2023-12-29T02:51:07;406.10;;;163.43;;
17858;SDS011;35426;30.698;104.050;2023-12-29T02:53:55;407.23;;;163.83;;
17858;SDS011;35426;30.698;104.050;2023-12-29T02:56:31;396.33;;;161.13;;
17858;SDS011;35426;30.698;104.050;2023-12-29T02:59:07;398.87;;;162.93;;
17858;SDS011;35426;30.698;104.050;2023-12-29T03:01:41;371.77;;;154.60;;
17858;SDS011;35426;30.698;104.050;2023-12-29T03:04:16;379.53;;;153.63;;
17858;SDS011;35426;30.698;104.050;2023-12-29T03:06:50;375.27;;;155.90;;
17858;SDS011;35426;30.698;104.050;2023-12-29T03:09:24;387.93;;;157.33;;
17858;SDS011;35426;30.698;104.050;2023-12-29T03:12:01;375.70;;;152.43;;
17858;SDS011;35426;30.698;104.050;2023-12-29T03:14:35;377.37;;;158.87;;
17858;SDS011;35426;30.698;104.050;2023-12-29T03:17:14;370.87;;;153.00;;
17858;SDS011;35426;30.698;104.050;2023-12-29T03:19:49;374.93;;;154.87;;
17858;SDS011;35426;30.698;104.050;2023-12-29T03:22:23;374.23;;;151.67;;
17858;SDS011;35426;30.698;104.050;2023-12-29T03:24:57;345.50;;;145.80;;
17858;SDS011;35426;30.698;104.050;2023-12-29T03:27:34;358.00;;;149.30;;
17858;SDS011;35426;30.698;104.050;2023-12-29T03:30:08;335.30;;;138.10;;
17858;SDS011;35426;30.698;104.050;2023-12-29T03:32:43;318.37;;;135.93;;
17858;SDS011;35426;30.698;104.050;2023-12-29T03:35:18;317.43;;;135.17;;
17858;SDS011;35426;30.698;104.050;2023-12-29T03:37:52;321.50;;;135.77;;
17858;SDS011;35426;30.698;104.050;2023-12-29T03:40:28;336.90;;;135.43;;
17858;SDS011;35426;30.698;104.050;2023-12-29T03:43:08;316.10;;;133.33;;
17858;SDS011;35426;30.698;104.050;2023-12-29T03:45:41;310.27;;;131.47;;
17858;SDS011;35426;30.698;104.050;2023-12-29T03:48:15;317.70;;;133.37;;
17858;SDS011;35426;30.698;104.050;2023-12-29T03:50:50;316.63;;;135.13;;
17858;SDS011;35426;30.698;104.050;2023-12-29T03:53:25;330.53;;;133.70;;
17858;SDS011;35426;30.698;104.050;2023-12-29T03:55:59;321.47;;;134.10;;
17858;SDS011;35426;30.698;104.050;2023-12-29T03:58:38;307.03;;;136.20;;
17858;SDS011;35426;30.698;104.050;2023-12-29T04:01:14;322.73;;;136.63;;
17858;SDS011;35426;30.698;104.050;2023-12-29T04:03:52;291.30;;;122.73;;
17858;SDS011;35426;30.698;104.050;2023-12-29T04:06:26;298.27;;;124.17;;
17858;SDS011;35426;30.698;104.050;2023-12-29T04:09:00;277.70;;;119.87;;
17858;SDS011;35426;30.698;104.050;2023-12-29T04:11:34;282.60;;;120.77;;
17858;SDS011;35426;30.698;104.050;2023-12-29T04:14:11;279.57;;;120.13;;
17858;SDS011;35426;30.698;104.050;2023-12-29T04:16:45;291.17;;;122.40;;
17858;SDS011;35426;30.698;104.050;2023-12-29T04:19:21;299.13;;;127.47;;
17858;SDS011;35426;30.698;104.050;2023-12-29T04:21:57;291.23;;;126.23;;
17858;SDS011;35426;30.698;104.050;2023-12-29T04:24:31;305.03;;;130.40;;
17858;SDS011;35426;30.698;104.050;2023-12-29T04:27:05;318.60;;;130.87;;
17858;SDS011;35426;30.698;104.050;2023-12-29T04:29:43;280.80;;;121.60;;
17858;SDS011;35426;30.698;104.050;2023-12-29T04:32:18;286.63;;;118.33;;
17858;SDS011;35426;30.698;104.050;2023-12-29T04:34:52;287.83;;;124.37;;
17858;SDS011;35426;30.698;104.050;2023-12-29T04:37:28;282.07;;;118.37;;
17858;SDS011;35426;30.698;104.050;2023-12-29T04:40:01;261.80;;;111.67;;
17858;SDS011;35426;30.698;104.050;2023-12-29T04:42:36;272.60;;;111.20;;
17858;SDS011;35426;30.698;104.050;2023-12-29T04:45:16;256.50;;;111.67;;
17858;SDS011;35426;30.698;104.050;2023-12-29T04:47:50;241.87;;;106.27;;
17858;SDS011;35426;30.698;104.050;2023-12-29T04:50:24;245.47;;;109.40;;
17858;SDS011;35426;30.698;104.050;2023-12-29T04:53:01;248.63;;;106.10;;
17858;SDS011;35426;30.698;104.050;2023-12-29T04:55:35;252.03;;;107.70;;
17858;SDS011;35426;30.698;104.050;2023-12-29T04:58:09;262.03;;;112.73;;
17858;SDS011;35426;30.698;104.050;2023-12-29T05:00:45;259.90;;;107.83;;
17858;SDS011;35426;30.698;104.050;2023-12-29T05:03:20;233.20;;;104.63;;
17858;SDS011;35426;30.698;104.050;2023-12-29T05:05:55;259.77;;;105.87;;
17858;SDS011;35426;30.698;104.050;2023-12-29T05:08:29;242.37;;;105.27;;
17858;SDS011;35426;30.698;104.050;2023-12-29T05:11:04;248.83;;;106.40;;
17858;SDS011;35426;30.698;104.050;2023-12-29T05:13:39;232.23;;;101.40;;
17858;SDS011;35426;30.698;104.050;2023-12-29T05:16:17;241.13;;;101.83;;
17858;SDS011;35426;30.698;104.050;2023-12-29T05:18:52;246.87;;;106.27;;
17858;SDS011;35426;30.698;104.050;2023-12-29T05:21:29;243.50;;;104.57;;
17858;SDS011;35426;30.698;104.050;2023-12-29T05:24:03;235.07;;;100.60;;
17858;SDS011;35426;30.698;104.050;2023-12-29T05:26:37;236.13;;;101.47;;
17858;SDS011;35426;30.698;104.050;2023-12-29T05:29:11;230.93;;;100.63;;
17858;SDS011;35426;30.698;104.050;2023-12-29T05:31:48;239.77;;;105.73;;
17858;SDS011;35426;30.698;104.050;2023-12-29T05:34:22;236.97;;;101.57;;
17858;SDS011;35426;30.698;104.050;2023-12-29T05:36:56;231.70;;;98.17;;
17858;SDS011;35426;30.698;104.050;2023-12-29T05:39:31;233.47;;;100.07;;
17858;SDS011;35426;30.698;104.050;2023-12-29T05:42:05;223.87;;;99.97;;
17858;SDS011;35426;30.698;104.050;2023-12-29T05:44:39;218.93;;;95.77;;
17858;SDS011;35426;30.698;104.050;2023-12-29T05:47:17;227.03;;;96.80;;
17858;SDS011;35426;30.698;104.050;2023-12-29T05:49:51;220.43;;;96.77;;
17858;SDS011;35426;30.698;104.050;2023-12-29T05:52:24;214.03;;;95.57;;
17858;SDS011;35426;30.698;104.050;2023-12-29T05:54:59;216.47;;;97.30;;
17858;SDS011;35426;30.698;104.050;2023-12-29T05:57:32;209.83;;;94.93;;
17858;SDS011;35426;30.698;104.050;2023-12-29T06:00:06;209.63;;;92.67;;
17858;SDS011;35426;30.698;104.050;2023-12-29T06:02:46;223.80;;;93.33;;
17858;SDS011;35426;30.698;104.050;2023-12-29T06:05:21;214.60;;;92.33;;
17858;SDS011;35426;30.698;104.050;2023-12-29T06:07:55;206.83;;;91.67;;
17858;SDS011;35426;30.698;104.050;2023-12-29T06:10:31;195.33;;;89.07;;
17858;SDS011;35426;30.698;104.050;2023-12-29T06:13:07;204.87;;;89.30;;
17858;SDS011;35426;30.698;104.050;2023-12-29T06:15:44;216.20;;;92.10;;
17858;SDS011;35426;30.698;104.050;2023-12-29T06:18:21;200.00;;;89.47;;
17858;SDS011;35426;30.698;104.050;2023-12-29T06:20:56;204.47;;;91.47;;
17858;SDS011;35426;30.698;104.050;2023-12-29T06:23:29;195.97;;;88.93;;
17858;SDS011;35426;30.698;104.050;2023-12-29T06:26:03;203.80;;;89.20;;
17858;SDS011;35426;30.698;104.050;2023-12-29T06:28:41;202.70;;;89.97;;
17858;SDS011;35426;30.698;104.050;2023-12-29T06:31:16;206.97;;;89.40;;
17858;SDS011;35426;30.698;104.050;2023-12-29T06:33:53;209.33;;;92.87;;
17858;SDS011;35426;30.698;104.050;2023-12-29T06:36:30;210.17;;;91.13;;
17858;SDS011;35426;30.698;104.050;2023-12-29T06:39:04;197.10;;;88.63;;
17858;SDS011;35426;30.698;104.050;2023-12-29T06:41:38;202.57;;;89.00;;
17858;SDS011;35426;30.698;104.050;2023-12-29T06:44:13;203.47;;;88.60;;
17858;SDS011;35426;30.698;104.050;2023-12-29T06:46:48;212.73;;;92.13;;
17858;SDS011;35426;30.698;104.050;2023-12-29T06:49:24;200.93;;;87.93;;
17858;SDS011;35426;30.698;104.050;2023-12-29T06:51:58;201.93;;;85.63;;
17858;SDS011;35426;30.698;104.050;2023-12-29T06:54:34;191.40;;;85.50;;
17858;SDS011;35426;30.698;104.050;2023-12-29T06:57:07;196.77;;;86.67;;
17858;SDS011;35426;30.698;104.050;2023-12-29T06:59:44;206.87;;;88.40;;
17858;SDS011;35426;30.698;104.050;2023-12-29T07:02:20;196.70;;;87.37;;
17858;SDS011;35426;30.698;104.050;2023-12-29T07:04:58;204.57;;;88.30;;
17858;SDS011;35426;30.698;104.050;2023-12-29T07:07:31;200.63;;;90.47;;
17858;SDS011;35426;30.698;104.050;2023-12-29T07:10:15;217.93;;;96.73;;
17858;SDS011;35426;30.698;104.050;2023-12-29T07:12:53;201.90;;;88.90;;
17858;SDS011;35426;30.698;104.050;2023-12-29T07:15:27;226.33;;;98.97;;
17858;SDS011;35426;30.698;104.050;2023-12-29T07:18:01;212.90;;;96.40;;
17858;SDS011;35426;30.698;104.050;2023-12-29T07:20:37;226.73;;;96.80;;
17858;SDS011;35426;30.698;104.050;2023-12-29T07:23:12;217.67;;;95.63;;
17858;SDS011;35426;30.698;104.050;2023-12-29T07:25:48;217.20;;;95.23;;
17858;SDS011;35426;30.698;104.050;2023-12-29T07:31:23;223.90;;;93.87;;
17858;SDS011;35426;30.698;104.050;2023-12-29T07:33:58;234.30;;;96.53;;
17858;SDS011;35426;30.698;104.050;2023-12-29T07:36:37;211.83;;;93.43;;
17858;SDS011;35426;30.698;104.050;2023-12-29T07:39:13;214.43;;;92.03;;
17858;SDS011;35426;30.698;104.050;2023-12-29T07:41:47;208.77;;;93.60;;
17858;SDS011;35426;30.698;104.050;2023-12-29T07:44:29;213.27;;;94.47;;
17858;SDS011;35426;30.698;104.050;2023-12-29T07:47:12;221.47;;;97.70;;
17858;SDS011;35426;30.698;104.050;2023-12-29T07:49:46;222.53;;;94.70;;
17858;SDS011;35426;30.698;104.050;2023-12-29T07:52:23;207.47;;;94.70;;
17858;SDS011;35426;30.698;104.050;2023-12-29T07:54:57;218.53;;;93.90;;
17858;SDS011;35426;30.698;104.050;2023-12-29T07:57:31;204.70;;;93.47;;
17858;SDS011;35426;30.698;104.050;2023-12-29T08:00:06;213.63;;;93.73;;
17858;SDS011;35426;30.698;104.050;2023-12-29T08:02:40;209.80;;;93.93;;
17858;SDS011;35426;30.698;104.050;2023-12-29T08:05:14;210.90;;;92.87;;
17858;SDS011;35426;30.698;104.050;2023-12-29T08:07:51;222.87;;;96.87;;
17858;SDS011;35426;30.698;104.050;2023-12-29T08:10:25;222.43;;;97.00;;
17858;SDS011;35426;30.698;104.050;2023-12-29T08:13:03;226.20;;;96.73;;
17858;SDS011;35426;30.698;104.050;2023-12-29T08:15:39;218.83;;;96.33;;
17858;SDS011;35426;30.698;104.050;2023-12-29T08:18:13;218.73;;;96.37;;
17858;SDS011;35426;30.698;104.050;2023-12-29T08:20:49;222.23;;;94.47;;
17858;SDS011;35426;30.698;104.050;2023-12-29T08:23:26;214.33;;;94.00;;
17858;SDS011;35426;30.698;104.050;2023-12-29T08:26:02;220.60;;;95.70;;
17858;SDS011;35426;30.698;104.050;2023-12-29T08:28:38;219.87;;;93.90;;
17858;SDS011;35426;30.698;104.050;2023-12-29T08:31:12;239.83;;;96.60;;
17858;SDS011;35426;30.698;104.050;2023-12-29T08:33:46;207.67;;;93.50;;
17858;SDS011;35426;30.698;104.050;2023-12-29T08:36:20;208.33;;;95.43;;
17858;SDS011;35426;30.698;104.050;2023-12-29T08:38:57;216.73;;;93.10;;
17858;SDS011;35426;30.698;104.050;2023-12-29T08:41:31;207.77;;;93.13;;
17858;SDS011;35426;30.698;104.050;2023-12-29T08:44:06;222.67;;;95.57;;
17858;SDS011;35426;30.698;104.050;2023-12-29T08:46:40;217.37;;;94.77;;
17858;SDS011;35426;30.698;104.050;2023-12-29T08:49:14;210.20;;;93.23;;
17858;SDS011;35426;30.698;104.050;2023-12-29T08:51:49;228.70;;;95.10;;
17858;SDS011;35426;30.698;104.050;2023-12-29T08:54:28;219.10;;;91.93;;
17858;SDS011;35426;30.698;104.050;2023-12-29T08:57:02;215.63;;;92.43;;
17858;SDS011;35426;30.698;104.050;2023-12-29T08:59:36;214.20;;;92.13;;
17858;SDS011;35426;30.698;104.050;2023-12-29T09:02:10;217.43;;;91.80;;
17858;SDS011;35426;30.698;104.050;2023-12-29T09:04:44;213.90;;;91.70;;
17858;SDS011;35426;30.698;104.050;2023-12-29T09:07:19;224.07;;;92.73;;
17858;SDS011;35426;30.698;104.050;2023-12-29T09:09:55;218.00;;;92.23;;
17858;SDS011;35426;30.698;104.050;2023-12-29T09:12:31;212.23;;;92.03;;
17858;SDS011;35426;30.698;104.050;2023-12-29T09:15:13;207.60;;;92.00;;
17858;SDS011;35426;30.698;104.050;2023-12-29T09:17:47;213.50;;;94.17;;
17858;SDS011;35426;30.698;104.050;2023-12-29T09:20:22;213.93;;;92.03;;
17858;SDS011;35426;30.698;104.050;2023-12-29T09:22:58;210.43;;;89.00;;
17858;SDS011;35426;30.698;104.050;2023-12-29T09:25:37;215.83;;;91.57;;
17858;SDS011;35426;30.698;104.050;2023-12-29T09:28:12;213.17;;;92.60;;
17858;SDS011;35426;30.698;104.050;2023-12-29T09:30:47;207.97;;;91.67;;
17858;SDS011;35426;30.698;104.050;2023-12-29T09:33:22;208.67;;;91.20;;
17858;SDS011;35426;30.698;104.050;2023-12-29T09:35:57;204.73;;;91.03;;
17858;SDS011;35426;30.698;104.050;2023-12-29T09:38:41;226.57;;;92.50;;
17858;SDS011;35426;30.698;104.050;2023-12-29T09:41:17;221.37;;;91.20;;
17858;SDS011;35426;30.698;104.050;2023-12-29T09:43:52;222.57;;;93.80;;
17858;SDS011;35426;30.698;104.050;2023-12-29T09:46:27;243.93;;;96.10;;
17858;SDS011;35426;30.698;104.050;2023-12-29T09:49:05;224.00;;;92.03;;
17858;SDS011;35426;30.698;104.050;2023-12-29T09:51:41;217.00;;;91.33;;
17858;SDS011;35426;30.698;104.050;2023-12-29T09:54:18;207.30;;;91.10;;
17858;SDS011;35426;30.698;104.050;2023-12-29T09:56:55;227.57;;;93.53;;
17858;SDS011;35426;30.698;104.050;2023-12-29T09:59:34;221.77;;;92.60;;
17858;SDS011;35426;30.698;104.050;2023-12-29T10:02:14;222.17;;;91.77;;
17858;SDS011;35426;30.698;104.050;2023-12-29T10:05:11;219.03;;;92.17;;
17858;SDS011;35426;30.698;104.050;2023-12-29T10:07:44;227.53;;;90.93;;
17858;SDS011;35426;30.698;104.050;2023-12-29T10:10:19;225.37;;;93.13;;
17858;SDS011;35426;30.698;104.050;2023-12-29T10:12:57;225.80;;;92.57;;
17858;SDS011;35426;30.698;104.050;2023-12-29T10:15:41;225.63;;;94.37;;
17858;SDS011;35426;30.698;104.050;2023-12-29T10:18:22;230.50;;;93.90;;
17858;SDS011;35426;30.698;104.050;2023-12-29T10:21:06;210.50;;;91.47;;
17858;SDS011;35426;30.698;104.050;2023-12-29T10:23:47;213.43;;;90.03;;
17858;SDS011;35426;30.698;104.050;2023-12-29T10:26:27;215.37;;;88.93;;
17858;SDS011;35426;30.698;104.050;2023-12-29T10:29:04;213.97;;;88.30;;
17858;SDS011;35426;30.698;104.050;2023-12-29T10:31:38;223.47;;;90.73;;
17858;SDS011;35426;30.698;104.050;2023-12-29T10:34:20;226.77;;;90.53;;
17858;SDS011;35426;30.698;104.050;2023-12-29T10:36:58;226.73;;;92.17;;
17858;SDS011;35426;30.698;104.050;2023-12-29T10:39:36;243.57;;;95.90;;
17858;SDS011;35426;30.698;104.050;2023-12-29T10:42:10;214.80;;;92.67;;
17858;SDS011;35426;30.698;104.050;2023-12-29T10:44:49;217.13;;;90.57;;
17858;SDS011;35426;30.698;104.050;2023-12-29T10:47:43;231.23;;;91.73;;
17858;SDS011;35426;30.698;104.050;2023-12-29T10:50:18;210.00;;;89.80;;
17858;SDS011;35426;30.698;104.050;2023-12-29T10:52:54;232.80;;;94.43;;
17858;SDS011;35426;30.698;104.050;2023-12-29T10:55:44;217.23;;;93.13;;
17858;SDS011;35426;30.698;104.050;2023-12-29T10:58:20;237.20;;;93.53;;
17858;SDS011;35426;30.698;104.050;2023-12-29T11:00:58;218.83;;;89.33;;
17858;SDS011;35426;30.698;104.050;2023-12-29T11:03:38;220.70;;;89.30;;
17858;SDS011;35426;30.698;104.050;2023-12-29T11:06:12;227.53;;;92.03;;
17858;SDS011;35426;30.698;104.050;2023-12-29T11:08:46;229.40;;;92.93;;
17858;SDS011;35426;30.698;104.050;2023-12-29T11:11:21;224.40;;;92.33;;
17858;SDS011;35426;30.698;104.050;2023-12-29T11:13:58;229.03;;;94.03;;
17858;SDS011;35426;30.698;104.050;2023-12-29T11:16:35;232.87;;;94.77;;
17858;SDS011;35426;30.698;104.050;2023-12-29T11:19:12;245.67;;;98.63;;
17858;SDS011;35426;30.698;104.050;2023-12-29T11:21:47;247.40;;;98.00;;
17858;SDS011;35426;30.698;104.050;2023-12-29T11:24:24;242.30;;;98.43;;
17858;SDS011;35426;30.698;104.050;2023-12-29T11:27:10;247.27;;;98.73;;
17858;SDS011;35426;30.698;104.050;2023-12-29T11:29:46;241.73;;;98.93;;
17858;SDS011;35426;30.698;104.050;2023-12-29T11:32:24;251.27;;;100.20;;
17858;SDS011;35426;30.698;104.050;2023-12-29T11:35:06;250.13;;;98.07;;
17858;SDS011;35426;30.698;104.050;2023-12-29T11:37:51;257.20;;;98.67;;
17858;SDS011;35426;30.698;104.050;2023-12-29T11:40:39;244.63;;;98.23;;
17858;SDS011;35426;30.698;104.050;2023-12-29T11:43:16;250.93;;;99.60;;
17858;SDS011;35426;30.698;104.050;2023-12-29T11:45:53;252.30;;;99.43;;
17858;SDS011;35426;30.698;104.050;2023-12-29T11:51:35;242.10;;;98.93;;
17858;SDS011;35426;30.698;104.050;2023-12-29T11:54:20;239.33;;;97.87;;
17858;SDS011;35426;30.698;104.050;2023-12-29T11:56:55;241.63;;;98.87;;
17858;SDS011;35426;30.698;104.050;2023-12-29T11:59:32;243.63;;;101.70;;
17858;SDS011;35426;30.698;104.050;2023-12-29T12:02:27;257.17;;;99.03;;
17858;SDS011;35426;30.698;104.050;2023-12-29T12:05:06;253.30;;;98.97;;
17858;SDS011;35426;30.698;104.050;2023-12-29T12:07:58;250.93;;;98.03;;
17858;SDS011;35426;30.698;104.050;2023-12-29T12:10:32;243.97;;;98.20;;
17858;SDS011;35426;30.698;104.050;2023-12-29T12:13:09;251.93;;;101.03;;
17858;SDS011;35426;30.698;104.050;2023-12-29T12:15:43;265.67;;;100.60;;
17858;SDS011;35426;30.698;104.050;2023-12-29T12:18:17;271.50;;;107.23;;
17858;SDS011;35426;30.698;104.050;2023-12-29T12:20:54;275.90;;;106.83;;
17858;SDS011;35426;30.698;104.050;2023-12-29T12:23:30;272.30;;;104.93;;
17858;SDS011;35426;30.698;104.050;2023-12-29T12:26:11;260.23;;;102.40;;
17858;SDS011;35426;30.698;104.050;2023-12-29T12:28:45;275.07;;;103.57;;
17858;SDS011;35426;30.698;104.050;2023-12-29T12:31:26;270.50;;;106.43;;
17858;SDS011;35426;30.698;104.050;2023-12-29T12:34:03;255.43;;;103.30;;
17858;SDS011;35426;30.698;104.050;2023-12-29T12:36:46;260.63;;;101.13;;
17858;SDS011;35426;30.698;104.050;2023-12-29T12:39:37;259.23;;;101.53;;
17858;SDS011;35426;30.698;104.050;2023-12-29T12:42:12;246.13;;;99.40;;
17858;SDS011;35426;30.698;104.050;2023-12-29T12:44:48;239.53;;;97.13;;
17858;SDS011;35426;30.698;104.050;2023-12-29T12:47:32;242.83;;;94.50;;
17858;SDS011;35426;30.698;104.050;2023-12-29T12:50:07;248.83;;;99.10;;
17858;SDS011;35426;30.698;104.050;2023-12-29T12:52:43;240.47;;;96.00;;
17858;SDS011;35426;30.698;104.050;2023-12-29T12:55:20;242.27;;;98.67;;
17858;SDS011;35426;30.698;104.050;2023-12-29T12:57:56;236.37;;;98.83;;
17858;SDS011;35426;30.698;104.050;2023-12-29T13:00:30;228.77;;;95.20;;
17858;SDS011;35426;30.698;104.050;2023-12-29T13:03:07;232.23;;;93.87;;
17858;SDS011;35426;30.698;104.050;2023-12-29T13:05:44;235.00;;;96.40;;
17858;SDS011;35426;30.698;104.050;2023-12-29T13:08:20;226.53;;;91.83;;
17858;SDS011;35426;30.698;104.050;2023-12-29T13:11:05;246.77;;;94.93;;
17858;SDS011;35426;30.698;104.050;2023-12-29T13:13:39;224.87;;;91.63;;
17858;SDS011;35426;30.698;104.050;2023-12-29T13:16:14;238.10;;;95.47;;
17858;SDS011;35426;30.698;104.050;2023-12-29T13:18:48;224.50;;;91.17;;
17858;SDS011;35426;30.698;104.050;2023-12-29T13:21:22;226.50;;;92.53;;
17858;SDS011;35426;30.698;104.050;2023-12-29T13:23:58;227.40;;;90.17;;
17858;SDS011;35426;30.698;104.050;2023-12-29T13:26:37;218.90;;;90.60;;
17858;SDS011;35426;30.698;104.050;2023-12-29T13:29:12;226.97;;;92.83;;
17858;SDS011;35426;30.698;104.050;2023-12-29T13:31:47;230.87;;;93.17;;
17858;SDS011;35426;30.698;104.050;2023-12-29T13:34:23;218.83;;;90.73;;
17858;SDS011;35426;30.698;104.050;2023-12-29T13:37:05;225.67;;;91.00;;
17858;SDS011;35426;30.698;104.050;2023-12-29T13:39:54;239.23;;;96.03;;
17858;SDS011;35426;30.698;104.050;2023-12-29T13:42:33;219.00;;;94.60;;
17858;SDS011;35426;30.698;104.050;2023-12-29T13:45:09;231.87;;;93.97;;
17858;SDS011;35426;30.698;104.050;2023-12-29T13:47:45;229.73;;;93.67;;
17858;SDS011;35426;30.698;104.050;2023-12-29T13:50:19;232.00;;;93.00;;
17858;SDS011;35426;30.698;104.050;2023-12-29T13:52:55;237.70;;;93.13;;
17858;SDS011;35426;30.698;104.050;2023-12-29T13:55:32;225.80;;;94.23;;
17858;SDS011;35426;30.698;104.050;2023-12-29T13:58:09;230.67;;;95.17;;
17858;SDS011;35426;30.698;104.050;2023-12-29T14:00:43;232.50;;;95.23;;
17858;SDS011;35426;30.698;104.050;2023-12-29T14:03:27;228.33;;;94.13;;
17858;SDS011;35426;30.698;104.050;2023-12-29T14:06:07;230.77;;;94.10;;
17858;SDS011;35426;30.698;104.050;2023-12-29T14:08:49;238.33;;;96.17;;
17858;SDS011;35426;30.698;104.050;2023-12-29T14:11:28;227.50;;;94.03;;
17858;SDS011;35426;30.698;104.050;2023-12-29T14:14:03;243.83;;;97.03;;
17858;SDS011;35426;30.698;104.050;2023-12-29T14:16:38;247.53;;;98.40;;
17858;SDS011;35426;30.698;104.050;2023-12-29T14:19:12;234.47;;;100.60;;
17858;SDS011;35426;30.698;104.050;2023-12-29T14:21:49;240.10;;;98.87;;
17858;SDS011;35426;30.698;104.050;2023-12-29T14:24:26;248.27;;;99.27;;
17858;SDS011;35426;30.698;104.050;2023-12-29T14:27:06;242.43;;;100.07;;
17858;SDS011;35426;30.698;104.050;2023-12-29T14:29:45;247.40;;;97.27;;
17858;SDS011;35426;30.698;104.050;2023-12-29T14:32:20;247.37;;;98.90;;
17858;SDS011;35426;30.698;104.050;2023-12-29T14:34:54;238.00;;;98.63;;
17858;SDS011;35426;30.698;104.050;2023-12-29T14:37:28;246.10;;;102.23;;